Time;durP1;ratioP1;P1;durP2;ratioP2;P2;SDS_P1;SDS_P2;PMS_P1;PMS_P2;Temp;Humidity;BMP_temperature;BMP_pressure;BME280_temperature;BME280_humidity;BME280_pressure;Samples;Min_cycle;Max_cycle;Signal;HPM_P1;HPM_P2
2023/01/03 00:01:38;;;;;;;0.43;0.43;;;;;;;-0.51;100.00;100339.16;7391881;19;20029;-57
2023/01/03 00:04:05;;;;;;;1.90;0.43;;;;;;;-0.51;100.00;100341.88;7396791;19;20048;-57
2023/01/03 00:06:34;;;;;;;1.75;1.17;;;;;;;-0.50;100.00;100343.47;7391121;19;20018;-57
2023/01/03 00:09:03;;;;;;;1.08;1.00;;;;;;;-0.51;100.00;100341.88;7391373;19;20015;-57
2023/01/03 00:14:18;;;;;;;1.05;1.00;;;;;;;-0.51;100.00;100344.63;7394410;19;20093;-57
2023/01/03 00:16:48;;;;;;;4.13;1.38;;;;;;;-0.55;100.00;100334.84;7399435;19;20015;-57
2023/01/03 00:19:14;;;;;;;4.70;1.33;;;;;;;-0.57;100.00;100337.19;7398892;19;20074;-57
2023/01/03 00:21:41;;;;;;;0.65;0.60;;;;;;;-0.59;100.00;100334.06;7399637;19;20018;-57
2023/01/03 00:24:08;;;;;;;2.45;1.27;;;;;;;-0.63;100.00;100342.28;7404064;19;20017;-57
2023/01/03 00:26:35;;;;;;;3.20;2.60;;;;;;;-0.73;100.00;100345.75;7403721;19;20082;-57
2023/01/03 00:29:02;;;;;;;3.42;1.70;;;;;;;-0.77;100.00;100347.69;7399234;19;20011;-57
2023/01/03 00:31:28;;;;;;;1.17;0.40;;;;;;;-0.82;100.00;100343.38;7399061;19;20010;-57
2023/01/03 00:33:54;;;;;;;2.60;1.20;;;;;;;-0.87;100.00;100334.78;7403356;19;20017;-57
2023/01/03 00:36:20;;;;;;;1.52;0.73;;;;;;;-0.90;100.00;100335.56;7399797;19;20035;-57
2023/01/03 00:38:47;;;;;;;0.50;0.50;;;;;;;-0.90;100.00;100333.59;7396759;19;20494;-57
2023/01/03 00:41:17;;;;;;;0.90;0.90;;;;;;;-0.80;100.00;100329.31;7400023;19;20473;-57
2023/01/03 00:43:46;;;;;;;1.80;1.58;;;;;;;-0.52;100.00;100332.09;7404115;19;20376;-57
2023/01/03 00:46:14;;;;;;;0.65;0.63;;;;;;;-0.59;100.00;100326.66;7401238;19;20010;-57
2023/01/03 00:48:40;;;;;;;1.80;0.93;;;;;;;-0.22;100.00;100327.03;7400630;19;20015;-57
2023/01/03 00:51:12;;;;;;;2.08;1.17;;;;;;;-0.32;100.00;100325.09;7399808;19;20075;-57
2023/01/03 00:53:38;;;;;;;;;;;;;;;-0.22;100.00;100324.28;7403690;19;20011;-57
2023/01/03 00:56:07;;;;;;;0.32;0.28;;;;;;;-0.34;100.00;100327.44;7399306;19;19922;-57
2023/01/03 00:58:34;;;;;;;1.52;0.57;;;;;;;0.02;100.00;100324.69;7397320;19;20411;-57
2023/01/03 01:01:10;;;;;;;1.65;0.82;;;;;;;-0.14;100.00;100316.88;7399193;19;20038;-57
2023/01/03 01:03:39;;;;;;;1.10;0.70;;;;;;;0.24;100.00;100315.28;7401995;19;20010;-57
2023/01/03 01:06:15;;;;;;;2.03;1.38;;;;;;;0.29;100.00;100309.38;7399987;19;20014;-57
2023/01/03 01:08:42;;;;;;;2.17;0.95;;;;;;;0.92;100.00;100311.91;7397810;19;20358;-57
2023/01/03 01:11:09;;;;;;;1.20;0.57;;;;;;;1.13;100.00;100311.78;7399150;19;20475;-59
2023/01/03 01:13:36;;;;;;;3.63;0.85;;;;;;;1.18;100.00;100314.09;7399120;19;20328;-59
2023/01/03 01:16:12;;;;;;;0.95;0.30;;;;;;;1.17;100.00;100301.56;7395978;19;20041;-57
2023/01/03 01:18:48;;;;;;;0.63;0.50;;;;;;;1.14;100.00;100312.56;7396551;19;20003;-57
2023/01/03 01:21:24;;;;;;;1.90;1.02;;;;;;;1.05;100.00;100293.81;7400993;19;20090;-86
2023/01/03 01:23:50;;;;;;;11.07;2.15;;;;;;;0.58;100.00;100294.44;7406382;19;20026;-87
2023/01/03 01:26:19;;;;;;;4.32;1.58;;;;;;;0.48;100.00;100290.53;7401470;19;20089;-87
2023/01/03 01:28:45;;;;;;;1.35;1.25;;;;;;;0.51;100.00;100289.75;7401229;19;20035;-87
2023/01/03 01:31:14;;;;;;;5.60;1.48;;;;;;;0.34;100.00;100287.06;7403803;19;20025;-87
2023/01/03 01:33:41;;;;;;;1.45;1.38;;;;;;;0.42;100.00;100288.59;7405827;19;20017;-86
2023/01/03 01:36:14;;;;;;;0.50;0.50;;;;;;;0.19;100.00;100274.59;7401378;19;20021;-87
2023/01/03 01:38:41;;;;;;;1.73;0.80;;;;;;;0.07;100.00;100277.72;7396792;19;20029;-87
2023/01/03 01:41:09;;;;;;;0.40;0.38;;;;;;;0.11;100.00;100267.59;7397522;19;20011;-87
2023/01/03 01:46:39;;;;;;;1.02;0.93;;;;;;;0.77;100.00;100258.31;7399464;19;20026;-87
2023/01/03 01:49:13;;;;;;;6.07;1.13;;;;;;;0.33;100.00;100264.38;7398996;19;20131;-87
2023/01/03 01:51:40;;;;;;;1.23;1.08;;;;;;;0.54;100.00;100258.03;7398427;19;20025;-87
2023/01/03 01:54:07;;;;;;;1.55;0.77;;;;;;;0.56;100.00;100250.97;7402333;19;20015;-87
2023/01/03 01:56:41;;;;;;;0.52;0.38;;;;;;;0.58;100.00;100256.06;7397830;19;20022;-87
2023/01/03 01:59:09;;;;;;;0.47;0.20;;;;;;;0.57;100.00;100238.84;7395406;19;20015;-87
2023/01/03 02:01:35;;;;;;;1.85;0.52;;;;;;;0.56;100.00;100244.72;7398484;19;20051;-86
2023/01/03 02:04:05;;;;;;;1.17;0.77;;;;;;;0.52;100.00;100233.00;7402719;19;20015;-87
2023/01/03 02:06:32;;;;;;;1.25;0.30;;;;;;;0.44;100.00;100228.72;7397775;19;20070;-87
2023/01/03 02:08:59;;;;;;;1.02;0.93;;;;;;;0.33;100.00;100225.25;7398771;19;20015;-87
2023/01/03 02:11:43;;;;;;;2.50;0.82;;;;;;;0.24;100.00;100228.41;7397295;19;20117;-87
2023/01/03 02:14:27;;;;;;;14.82;1.45;;;;;;;0.15;100.00;100225.31;7403244;19;20341;-87
2023/01/03 02:17:14;;;;;;;3.83;1.65;;;;;;;0.04;100.00;100223.78;7398609;19;20022;-87
2023/01/03 02:20:17;;;;;;;0.47;0.38;;;;;;;-0.02;100.00;100215.97;7398845;19;20029;-87
2023/01/03 02:23:03;;;;;;;0.60;0.60;;;;;;;-0.02;100.00;100213.22;7398104;19;20022;-86
2023/01/03 02:26:07;;;;;;;3.90;1.33;;;;;;;0.02;100.00;100212.44;7396938;19;20018;-87
2023/01/03 02:29:01;;;;;;;4.30;0.52;;;;;;;0.00;100.00;100208.13;7399867;19;20014;-87
2023/01/03 02:31:45;;;;;;;3.47;0.82;;;;;;;0.07;100.00;100212.03;7396372;19;20007;-87
2023/01/03 02:34:30;;;;;;;2.58;0.32;;;;;;;0.12;100.00;100206.16;7402420;19;20006;-87
2023/01/03 02:37:18;;;;;;;1.45;1.05;;;;;;;0.26;100.00;100201.41;7395384;19;20015;-87
2023/01/03 02:40:18;;;;;;;10.35;1.20;;;;;;;0.38;100.00;100194.72;7396233;19;20014;-87
2023/01/03 02:43:04;;;;;;;1.15;1.08;;;;;;;0.48;100.00;100194.66;7397478;19;20521;-87
2023/01/03 02:45:33;;;;;;;0.30;0.30;;;;;;;0.50;100.00;100191.50;7396705;19;20063;-87
2023/01/03 02:48:08;;;;;;;1.75;1.13;;;;;;;0.51;100.00;100179.38;7396708;19;20062;-88
2023/01/03 02:50:44;;;;;;;2.17;1.02;;;;;;;0.44;100.00;100179.41;7396915;19;20037;-87
2023/01/03 02:53:16;;;;;;;1.75;1.65;;;;;;;0.42;100.00;100173.56;7397893;19;20026;-87
2023/01/03 02:55:43;;;;;;;1.23;1.13;;;;;;;0.42;100.00;100170.81;7395744;19;20007;-87
2023/01/03 02:58:16;;;;;;;3.83;1.67;;;;;;;0.41;100.00;100172.00;7394659;19;20335;-87
2023/01/03 03:00:48;;;;;;;0.75;0.43;;;;;;;0.43;100.00;100164.94;7397372;19;20019;-88
2023/01/03 03:03:21;;;;;;;1.13;1.00;;;;;;;0.50;100.00;100158.63;7397319;19;20011;-87
2023/01/03 03:06:52;;;;;;;3.83;1.38;;;;;;;0.62;100.00;100155.44;7396493;19;20011;-88
2023/01/03 03:09:18;;;;;;;0.88;0.80;;;;;;;0.72;100.00;100154.59;7392753;19;20531;-87
2023/01/03 03:14:36;;;;;;;1.05;0.45;;;;;;;0.85;100.00;100143.91;7396883;19;20014;-88
2023/01/03 03:17:07;;;;;;;7.38;0.85;;;;;;;0.98;100.00;100145.78;7395686;19;20014;-88
2023/01/03 03:25:32;;;;;;;8.10;0.88;;;;;;;1.61;100.00;100132.66;7396056;19;20027;-89
2023/01/03 03:30:53;;;;;;;0.73;0.68;;;;;;;3.54;100.00;100123.56;7394939;19;20013;-89
2023/01/03 03:33:22;;;;;;;1.85;0.98;;;;;;;1.66;100.00;100108.31;7398151;19;20018;-89
2023/01/03 03:36:04;;;;;;;2.70;1.35;;;;;;;1.50;100.00;100108.84;7395932;19;20010;-89
2023/01/03 03:38:35;;;;;;;0.65;0.63;;;;;;;1.44;100.00;100110.50;7394270;19;20015;-89
2023/01/03 03:47:45;;;;;;;1.05;0.90;;;;;;;1.51;100.00;100107.69;7395138;19;20021;-89
2023/01/03 03:50:33;;;;;;;0.85;0.85;;;;;;;1.53;100.00;100099.81;7399549;19;20023;-89
2023/01/03 03:53:03;;;;;;;2.58;1.48;;;;;;;3.74;100.00;100088.59;7402393;19;20014;-88
2023/01/03 03:55:37;;;;;;;5.82;1.27;;;;;;;1.75;100.00;100081.16;7403539;19;20010;-89
2023/01/03 03:58:36;;;;;;;4.30;0.90;;;;;;;1.56;100.00;100080.97;7400947;19;20494;-88
2023/01/03 04:01:02;;;;;;;0.50;0.50;;;;;;;1.84;100.00;100069.66;7401360;19;20015;-89
2023/01/03 04:03:30;;;;;;;0.52;0.40;;;;;;;1.72;100.00;100076.47;7404756;19;20014;-88
2023/01/03 04:06:05;;;;;;;6.70;0.90;;;;;;;1.46;100.00;100072.44;7403337;19;20015;-88
2023/01/03 04:08:31;;;;;;;3.20;1.17;;;;;;;3.74;100.00;100072.06;7407962;19;20341;-89
2023/01/03 04:11:04;;;;;;;3.30;1.15;;;;;;;2.50;100.00;100065.19;7402066;19;20014;-89
2023/01/03 04:13:33;;;;;;;2.47;1.17;;;;;;;1.98;100.00;100069.47;7404372;19;20017;-89
2023/01/03 04:15:59;;;;;;;3.88;1.83;;;;;;;2.08;100.00;100058.34;7400788;19;20015;-88
2023/01/03 04:18:25;;;;;;;0.55;0.55;;;;;;;2.21;100.00;100056.59;7399897;19;20011;-89
2023/01/03 04:20:51;;;;;;;0.20;0.20;;;;;;;2.25;100.00;100042.81;7402217;19;20011;-88
2023/01/03 04:23:18;;;;;;;0.82;0.60;;;;;;;1.95;100.00;100060.09;7404696;19;20022;-88
2023/01/03 04:25:44;;;;;;;1.20;1.05;;;;;;;2.05;100.00;100047.41;7402032;19;20015;-88
2023/01/03 04:28:10;;;;;;;2.13;1.55;;;;;;;2.09;100.00;100046.19;7400850;19;20477;-88
2023/01/03 04:30:36;;;;;;;0.88;0.77;;;;;;;1.95;100.00;100031.88;7402274;19;20023;-88
2023/01/03 04:33:04;;;;;;;4.90;1.27;;;;;;;1.82;100.00;100023.38;7399839;19;20018;-88
2023/01/03 04:35:34;;;;;;;1.30;0.47;;;;;;;1.73;100.00;100036.06;7401982;19;20376;-88
2023/01/03 04:38:01;;;;;;;2.97;0.82;;;;;;;1.80;100.00;100041.47;7399859;19;20010;-88
2023/01/03 04:40:27;;;;;;;3.55;0.80;;;;;;;1.75;100.00;100036.44;7401728;19;20116;-88
2023/01/03 04:45:38;;;;;;;1.58;0.60;;;;;;;1.64;100.00;100035.78;7401370;19;20031;-88
2023/01/03 04:48:05;;;;;;;0.85;0.40;;;;;;;1.60;100.00;100021.34;7402066;19;20014;-88
2023/01/03 04:50:31;;;;;;;2.38;1.15;;;;;;;1.63;100.00;100026.78;7399993;19;20014;-88
2023/01/03 04:52:58;;;;;;;1.10;0.82;;;;;;;1.60;100.00;100015.84;7400560;19;20966;-88
2023/01/03 04:55:25;;;;;;;6.03;0.50;;;;;;;1.57;100.00;99998.22;7399380;19;20015;-88
2023/01/03 04:57:51;;;;;;;4.57;0.80;;;;;;;1.55;100.00;100000.59;7399827;19;20022;-88
2023/01/03 05:00:17;;;;;;;0.52;0.30;;;;;;;1.67;100.00;99993.81;7398673;19;20096;-88
2023/01/03 05:02:43;;;;;;;2.25;0.98;;;;;;;1.79;100.00;99990.50;7400328;19;20074;-88
2023/01/03 05:05:09;;;;;;;7.72;1.70;;;;;;;1.88;100.00;99988.81;7401359;19;20011;-89
2023/01/03 05:07:35;;;;;;;1.55;0.70;;;;;;;1.87;100.00;99992.72;7401013;19;20014;-88
2023/01/03 05:10:02;;;;;;;1.75;1.00;;;;;;;1.93;100.00;99982.03;7401128;19;20028;-89
2023/01/03 05:12:28;;;;;;;2.58;1.17;;;;;;;2.03;100.00;99972.91;7399317;19;20014;-90
2023/01/03 05:14:54;;;;;;;0.20;0.17;;;;;;;2.14;100.00;99979.00;7401014;19;20048;-90
2023/01/03 05:17:20;;;;;;;0.82;0.77;;;;;;;2.18;100.00;99979.72;7398907;19;20007;-89
2023/01/03 05:28:03;;;;;;;1.05;0.90;;;;;;;2.39;100.00;99968.41;7399786;19;20011;-90
2023/01/03 05:30:29;;;;;;;0.90;0.68;;;;;;;2.55;100.00;99965.00;7398783;19;20014;-90
2023/01/03 05:32:56;;;;;;;1.00;0.82;;;;;;;2.51;100.00;99956.81;7399528;19;20346;-86
2023/01/03 05:35:23;;;;;;;2.47;0.93;;;;;;;2.58;100.00;99959.44;7398766;19;20457;-85
2023/01/03 05:37:52;;;;;;;5.13;1.73;;;;;;;2.61;100.00;99958.59;7399426;19;20060;-91
2023/01/03 05:40:18;;;;;;;2.20;0.40;;;;;;;2.71;100.00;99965.88;7399870;19;20014;-92
2023/01/03 05:42:45;;;;;;;18.13;3.70;;;;;;;2.75;100.00;99969.34;7399914;19;20021;-92
2023/01/03 05:45:11;;;;;;;2.17;0.68;;;;;;;2.80;100.00;99955.13;7398675;19;20014;-86
2023/01/03 05:47:37;;;;;;;4.68;1.02;;;;;;;2.79;100.00;99952.81;7396166;19;20018;-86
2023/01/03 05:50:04;;;;;;;8.98;1.65;;;;;;;2.86;100.00;99952.66;7398162;19;20006;-86
2023/01/03 05:52:30;;;;;;;2.70;1.08;;;;;;;2.89;100.00;99941.59;7398708;19;20021;-86
2023/01/03 05:54:56;;;;;;;0.88;0.88;;;;;;;2.88;100.00;99934.53;7397847;19;20014;-91
2023/01/03 05:57:23;;;;;;;0.65;0.65;;;;;;;2.94;100.00;99943.88;7398906;19;20025;-91
2023/01/03 05:59:49;;;;;;;1.40;0.70;;;;;;;2.87;100.00;99929.47;7398781;19;20078;-83
2023/01/03 06:02:15;;;;;;;3.55;1.27;;;;;;;2.90;100.00;99918.38;7398744;19;20014;-87
2023/01/03 06:04:41;;;;;;;4.28;0.95;;;;;;;2.95;100.00;99906.91;7397307;19;20010;-87
2023/01/03 06:07:07;;;;;;;3.45;1.70;;;;;;;2.93;100.00;99914.81;7399304;19;20006;-88
2023/01/03 06:09:33;;;;;;;2.38;0.77;;;;;;;3.05;100.00;99911.41;7397018;19;20047;-89
2023/01/03 06:12:00;;;;;;;0.55;0.55;;;;;;;3.01;100.00;99899.69;7392621;19;20019;-90
2023/01/03 06:14:26;;;;;;;1.55;0.45;;;;;;;3.10;100.00;99903.88;7398613;19;20308;-89
2023/01/03 06:19:36;;;;;;;0.90;0.65;;;;;;;3.31;100.00;99890.47;7398536;19;20014;-89
2023/01/03 06:22:02;;;;;;;2.55;1.15;;;;;;;3.35;100.00;99906.88;7396832;19;20015;-91
2023/01/03 06:24:29;;;;;;;3.72;1.10;;;;;;;3.35;100.00;99890.38;7398804;19;20086;-89
2023/01/03 06:26:55;;;;;;;6.03;1.55;;;;;;;3.42;100.00;99892.97;7399716;19;20034;-90
2023/01/03 06:29:21;;;;;;;1.05;0.95;;;;;;;3.45;100.00;99892.13;7398569;19;20729;-90
2023/01/03 06:31:47;;;;;;;4.65;1.83;;;;;;;3.49;100.00;99887.31;7399916;19;20010;-90
2023/01/03 06:34:14;;;;;;;1.88;1.05;;;;;;;3.55;100.00;99880.13;7402708;19;20070;-90
2023/01/03 06:36:40;;;;;;;2.88;1.08;;;;;;;3.60;100.00;99868.56;7398515;19;20469;-89
2023/01/03 06:39:07;;;;;;;2.20;1.40;;;;;;;3.60;100.00;99868.56;7397169;19;20010;-89
2023/01/03 06:41:33;;;;;;;1.35;0.82;;;;;;;3.61;100.00;99853.63;7397517;19;20017;-91
2023/01/03 06:43:59;;;;;;;3.92;0.80;;;;;;;3.62;100.00;99838.63;7401780;19;20011;-90
2023/01/03 06:54:47;;;;;;;2.88;1.02;;;;;;;4.35;100.00;99827.00;7398564;19;20551;-90
2023/01/03 06:57:13;;;;;;;2.70;1.10;;;;;;;3.85;100.00;99825.47;7397232;19;20026;-91
2023/01/03 06:59:39;;;;;;;0.63;0.63;;;;;;;3.88;100.00;99829.34;7396691;19;20465;-90
2023/01/03 07:02:05;;;;;;;1.60;0.85;;;;;;;3.89;100.00;99824.63;7397492;19;20018;-90
2023/01/03 07:04:32;;;;;;;1.77;0.60;;;;;;;4.00;100.00;99819.63;7397290;19;20027;-90
2023/01/03 07:06:58;;;;;;;2.20;1.02;;;;;;;4.08;100.00;99821.78;7397081;19;20014;-91
2023/01/03 07:09:24;;;;;;;4.60;0.82;;;;;;;4.07;100.00;99817.44;7397657;19;20021;-91
2023/01/03 07:11:50;;;;;;;2.88;0.68;;;;;;;4.13;100.00;99812.22;7396888;19;20063;-91
2023/01/03 07:14:17;;;;;;;2.20;1.65;;;;;;;4.14;100.00;99819.25;7396674;19;20149;-90
2023/01/03 07:16:45;;;;;;;2.22;0.93;;;;;;;4.13;100.00;99813.00;7397442;19;20027;-90
2023/01/03 07:19:15;;;;;;;5.13;0.98;;;;;;;4.19;100.00;99816.75;7397289;19;20022;-91
2023/01/03 07:21:42;;;;;;;1.60;0.68;;;;;;;4.20;100.00;99807.28;7397591;19;20043;-90
2023/01/03 07:24:11;;;;;;;3.40;1.08;;;;;;;4.24;100.00;99815.47;7402282;19;20033;-90
2023/01/03 07:26:38;;;;;;;2.55;0.95;;;;;;;4.28;100.00;99814.16;7397384;19;20023;-89
2023/01/03 07:29:07;;;;;;;0.77;0.40;;;;;;;4.30;100.00;99816.47;7397635;19;20027;-90
2023/01/03 07:31:34;;;;;;;2.60;0.85;;;;;;;4.35;100.00;99816.72;7396985;19;20398;-91
2023/01/03 07:34:00;;;;;;;3.30;1.23;;;;;;;4.36;100.00;99804.50;7410603;19;20520;-90
2023/01/03 07:36:26;;;;;;;1.08;0.68;;;;;;;4.41;100.00;99806.72;7405760;19;20018;-93
2023/01/03 07:38:54;;;;;;;2.00;0.68;;;;;;;4.41;100.00;99806.72;7401967;19;20368;-91
2023/01/03 07:41:20;;;;;;;5.82;0.98;;;;;;;4.45;100.00;99801.88;7406882;19;20019;-90
2023/01/03 07:43:48;;;;;;;2.17;0.45;;;;;;;4.45;100.00;99804.66;7402858;19;20062;-96
2023/01/03 07:46:18;;;;;;;2.63;0.95;;;;;;;4.46;100.00;99800.66;7404934;19;20015;-93
2023/01/03 07:48:47;;;;;;;12.13;2.20;;;;;;;4.54;100.00;99810.31;7395108;19;20070;-91
2023/01/03 07:51:15;;;;;;;1.50;0.98;;;;;;;4.61;100.00;99817.63;7395812;19;20474;-89
2023/01/03 07:53:41;;;;;;;1.58;0.57;;;;;;;4.63;100.00;99800.63;7400004;19;20371;-92
2023/01/03 07:56:13;;;;;;;8.82;1.38;;;;;;;4.67;100.00;99798.53;7396248;19;20362;-90
2023/01/03 07:58:41;;;;;;;2.85;0.65;;;;;;;4.65;100.00;99803.72;7393988;19;20018;-91
2023/01/03 08:01:10;;;;;;;2.67;1.25;;;;;;;4.71;100.00;99805.50;7395910;19;20010;-88
2023/01/03 08:03:38;;;;;;;1.38;0.63;;;;;;;4.74;100.00;99795.59;7400235;19;20014;-92
2023/01/03 08:06:11;;;;;;;0.85;0.73;;;;;;;4.76;100.00;99801.44;7395894;19;20038;-91
2023/01/03 08:08:38;;;;;;;3.20;1.60;;;;;;;4.82;100.00;99802.44;7395883;19;20014;-92
2023/01/03 08:13:50;;;;;;;0.13;0.13;;;;;;;4.87;100.00;99805.44;7400806;19;20018;-93
2023/01/03 08:16:17;;;;;;;6.55;2.22;;;;;;;4.87;100.00;99799.94;7394734;19;20015;-92
2023/01/03 08:18:44;;;;;;;3.13;0.75;;;;;;;4.91;100.00;99800.59;7393823;19;20038;-92
2023/01/03 08:21:13;;;;;;;0.45;0.40;;;;;;;4.88;100.00;99808.97;7394413;19;20074;-85
2023/01/03 08:23:40;;;;;;;0.63;0.40;;;;;;;4.86;100.00;99797.59;7396530;19;20039;-90
2023/01/03 08:26:15;;;;;;;1.75;0.88;;;;;;;4.81;100.00;99795.38;7394446;19;20010;-91
2023/01/03 08:28:42;;;;;;;3.00;1.70;;;;;;;4.82;100.00;99796.91;7393271;19;20491;-92
2023/01/03 08:31:21;;;;;;;2.10;1.10;;;;;;;4.84;100.00;99788.97;7394811;19;20449;-91
2023/01/03 08:33:57;;;;;;;5.05;1.17;;;;;;;4.91;100.00;99784.03;7398533;19;20019;-93
2023/01/03 08:36:27;;;;;;;5.15;1.58;;;;;;;4.94;100.00;99798.91;7400243;19;20078;-92
2023/01/03 08:39:01;;;;;;;3.58;1.45;;;;;;;4.95;100.00;99789.44;7398870;19;20014;-90
2023/01/03 08:41:30;;;;;;;1.40;0.98;;;;;;;4.95;100.00;99790.22;7399991;19;20552;-89
2023/01/03 08:43:59;;;;;;;6.10;0.90;;;;;;;4.92;100.00;99795.81;7404469;19;20006;-91
2023/01/03 08:46:25;;;;;;;5.72;1.23;;;;;;;4.97;100.00;99798.06;7401223;19;20018;-90
2023/01/03 08:48:54;;;;;;;1.75;0.80;;;;;;;4.99;100.00;99795.63;7400217;19;20022;-88
2023/01/03 08:51:20;;;;;;;4.22;1.05;;;;;;;5.04;100.00;99797.84;7401759;19;20045;-90
2023/01/03 08:53:47;;;;;;;2.60;0.68;;;;;;;5.05;100.00;99804.91;7407603;19;20070;-91
2023/01/03 08:56:13;;;;;;;0.63;0.47;;;;;;;5.12;100.00;99799.19;7401918;19;20025;-91
2023/01/03 08:58:39;;;;;;;6.22;1.42;;;;;;;5.23;100.00;99794.13;7398536;19;20480;-90
2023/01/03 09:01:05;;;;;;;2.28;1.75;;;;;;;5.30;100.00;99788.38;7399740;19;20014;-90
2023/01/03 09:03:31;;;;;;;3.40;1.33;;;;;;;5.37;100.00;99793.69;7403127;19;20033;-90
2023/01/03 09:06:01;;;;;;;1.83;1.70;;;;;;;5.45;100.00;99794.25;7401043;19;20018;-90
2023/01/03 09:08:32;;;;;;;0.47;0.47;;;;;;;5.50;100.00;99797.19;7400774;19;20338;-90
2023/01/03 09:11:06;;;;;;;3.70;0.90;;;;;;;5.52;100.00;99799.53;7399050;19;20096;-90
2023/01/03 09:13:33;;;;;;;2.90;0.82;;;;;;;5.54;100.00;99802.63;7404555;19;20019;-91
2023/01/03 09:16:05;;;;;;;1.40;0.45;;;;;;;5.54;100.00;99789.59;7400032;19;20009;-90
2023/01/03 09:18:33;;;;;;;5.38;1.08;;;;;;;5.55;100.00;99777.31;7398896;19;20038;-90
2023/01/03 09:21:00;;;;;;;1.33;0.55;;;;;;;5.61;100.00;99786.59;7400234;19;20040;-90
2023/01/03 09:23:26;;;;;;;0.88;0.55;;;;;;;5.63;100.00;99786.91;7402334;19;20115;-90
2023/01/03 09:25:52;;;;;;;3.75;1.00;;;;;;;5.66;100.00;99777.75;7398651;19;20030;-91
2023/01/03 09:28:19;;;;;;;2.47;0.93;;;;;;;5.69;100.00;99774.13;7400346;19;20018;-92
2023/01/03 09:30:45;;;;;;;2.47;0.60;;;;;;;5.69;100.00;99776.88;7398861;19;20015;-91
2023/01/03 09:33:11;;;;;;;2.53;1.00;;;;;;;5.71;100.00;99768.91;7398977;19;20014;-91
2023/01/03 09:35:37;;;;;;;1.70;0.60;;;;;;;5.77;100.00;99761.59;7399154;19;20086;-91
2023/01/03 09:38:04;;;;;;;1.17;0.73;;;;;;;5.80;100.00;99755.19;7399420;19;20364;-92
2023/01/03 09:40:35;;;;;;;0.82;0.40;;;;;;;5.91;100.00;99755.63;7400774;19;20018;-93
2023/01/03 09:43:12;;;;;;;;;;;;;;;6.21;100.00;99765.28;7401463;19;20030;-92
2023/01/03 09:45:42;;;;;;;4.15;1.30;;;;;;;6.59;100.00;99754.03;7396731;19;19926;-92
2023/01/03 09:48:15;;;;;;;0.68;0.63;;;;;;;6.77;100.00;99762.47;7397881;19;20015;-93
2023/01/03 09:50:43;;;;;;;0.10;0.10;;;;;;;7.06;100.00;99754.63;7397189;19;20082;-92
2023/01/03 10:05:22;;;;;;;3.42;0.73;;;;;;;7.76;100.00;99731.63;7400355;19;20029;-89
2023/01/03 10:08:17;;;;;;;0.85;0.50;;;;;;;7.85;100.00;99741.97;7400185;19;20014;-90
2023/01/03 10:11:06;;;;;;;0.17;0.15;;;;;;;7.89;100.00;99737.81;7399464;19;20015;-88
2023/01/03 10:13:54;;;;;;;0.32;0.20;;;;;;;7.98;100.00;99735.06;7401406;19;20322;-89
2023/01/03 10:16:29;;;;;;;0.30;0.30;;;;;;;8.00;100.00;99732.59;7397302;19;20469;-87
2023/01/03 10:19:21;;;;;;;1.10;0.77;;;;;;;8.04;100.00;99733.19;7397125;19;20013;-88
2023/01/03 10:21:56;;;;;;;0.47;0.22;;;;;;;8.10;100.00;99727.81;7395588;19;20107;-90
2023/01/03 10:24:35;;;;;;;9.18;0.65;;;;;;;8.12;100.00;99728.13;7395798;19;20015;-89
2023/01/03 10:27:21;;;;;;;0.30;0.30;;;;;;;8.16;100.00;99723.97;7395346;19;20010;-90
2023/01/03 10:29:50;;;;;;;0.73;0.45;;;;;;;8.24;100.00;99718.88;7396658;19;20027;-90
2023/01/03 10:32:41;;;;;;;0.10;0.10;;;;;;;8.28;100.00;99720.28;7396491;19;20014;-90
2023/01/03 10:35:19;;;;;;;1.38;0.30;;;;;;;8.38;100.00;99712.75;7397931;19;20006;-91
2023/01/03 10:37:46;;;;;;;0.10;0.10;;;;;;;8.46;100.00;99708.41;7395972;19;20018;-89
2023/01/03 10:40:13;;;;;;;1.88;0.93;;;;;;;8.53;100.00;99696.22;7397757;19;20040;-88
2023/01/03 10:42:41;;;;;;;0.40;0.40;;;;;;;8.57;100.00;99700.38;7398971;19;20027;-90
2023/01/03 10:45:19;;;;;;;0.32;0.20;;;;;;;8.58;100.00;99699.13;7397665;19;20021;-91
2023/01/03 10:47:59;;;;;;;3.08;0.40;;;;;;;8.61;100.00;99698.22;7398226;19;20020;-91
2023/01/03 10:50:26;;;;;;;3.95;0.57;;;;;;;8.65;100.00;99687.72;7397297;19;20022;-92
2023/01/03 10:53:14;;;;;;;0.17;0.10;;;;;;;8.73;100.00;99694.47;7396709;19;20022;-92
2023/01/03 10:55:51;;;;;;;2.78;0.45;;;;;;;8.71;100.00;99687.84;7398139;19;20027;-92
2023/01/03 10:58:26;;;;;;;0.20;0.15;;;;;;;8.71;100.00;99691.38;7394600;19;20010;-92
2023/01/03 11:01:08;;;;;;;0.38;0.22;;;;;;;8.73;100.00;99683.34;7395028;19;20082;-93
2023/01/03 11:03:34;;;;;;;0.22;0.10;;;;;;;8.77;100.00;99678.41;7400745;19;20013;-93
2023/01/03 11:06:00;;;;;;;0.73;0.15;;;;;;;8.78;100.00;99682.75;7397250;19;20078;-94
2023/01/03 11:08:43;;;;;;;0.47;0.28;;;;;;;8.91;100.00;99677.75;7395471;19;20019;-94
2023/01/03 11:11:27;;;;;;;4.10;0.57;;;;;;;8.85;100.00;99671.31;7397404;19;20035;-93
2023/01/03 11:14:17;;;;;;;4.30;0.63;;;;;;;8.88;100.00;99675.91;7401606;19;20050;-93
2023/01/03 11:16:43;;;;;;;6.28;1.00;;;;;;;8.93;100.00;99675.28;7398160;19;20386;-93
2023/01/03 11:19:15;;;;;;;1.27;0.82;;;;;;;8.93;100.00;99658.63;7395187;19;20003;-93
2023/01/03 11:21:47;;;;;;;2.88;0.88;;;;;;;8.92;100.00;99661.88;7394843;19;20061;-93
2023/01/03 11:24:27;;;;;;;2.28;0.40;;;;;;;8.88;100.00;99656.47;7400154;19;20021;-94
2023/01/03 11:27:15;;;;;;;1.80;1.45;;;;;;;9.02;100.00;99643.94;7395106;19;20014;-94
2023/01/03 11:29:45;;;;;;;3.95;0.68;;;;;;;9.06;100.00;99642.50;7397247;19;20014;-94
2023/01/03 11:32:47;;;;;;;7.43;0.98;;;;;;;8.97;100.00;99642.56;7394929;19;20457;-92
2023/01/03 11:35:13;;;;;;;;;;;;;;;8.96;100.00;99634.69;7394085;19;20093;-92
2023/01/03 11:37:48;;;;;;;1.48;0.63;;;;;;;8.99;100.00;99628.97;7395707;19;19974;-94
2023/01/03 11:40:33;;;;;;;7.75;1.60;;;;;;;9.05;100.00;99615.97;7394698;19;20010;-93
2023/01/03 11:43:33;;;;;;;5.63;1.35;;;;;;;9.10;100.00;99615.34;7395286;19;20011;-92
2023/01/03 11:46:17;;;;;;;1.15;0.55;;;;;;;9.14;100.00;99613.16;7394732;19;20013;-90
2023/01/03 11:49:02;;;;;;;1.80;1.05;;;;;;;9.32;100.00;99600.38;7395465;19;20035;-90
2023/01/03 11:51:40;;;;;;;0.40;0.40;;;;;;;9.39;100.00;99598.03;7395319;19;20006;-91
2023/01/03 11:54:30;;;;;;;1.13;0.75;;;;;;;9.48;100.00;99592.41;7397814;19;20014;-91
2023/01/03 11:57:07;;;;;;;5.78;0.63;;;;;;;9.35;100.00;99589.09;7395731;19;20462;-91
2023/01/03 11:59:47;;;;;;;1.58;0.75;;;;;;;9.31;100.00;99593.31;7391883;19;20022;-86
2023/01/03 12:02:38;;;;;;;0.82;0.38;;;;;;;9.40;100.00;99590.47;7391220;19;20597;-87
2023/01/03 12:05:27;;;;;;;2.35;0.80;;;;;;;9.45;100.00;99579.44;7393523;19;20014;-81
2023/01/03 12:08:05;;;;;;;0.40;0.25;;;;;;;9.38;100.00;99582.56;7391695;19;20018;-84
2023/01/03 12:10:58;;;;;;;0.10;0.10;;;;;;;9.29;100.00;99568.75;7394798;19;20040;-85
2023/01/03 12:13:43;;;;;;;0.73;0.52;;;;;;;9.34;100.00;99570.88;7400677;19;20402;-85
2023/01/03 12:16:13;;;;;;;3.13;1.05;;;;;;;9.34;100.00;99567.31;7400207;19;20032;-84
2023/01/03 12:18:49;;;;;;;0.38;0.38;;;;;;;9.38;100.00;99565.91;7395213;19;20545;-81
2023/01/03 12:21:26;;;;;;;2.75;0.40;;;;;;;9.41;100.00;99553.06;7395981;19;20025;-84
2023/01/03 12:24:01;;;;;;;0.82;0.40;;;;;;;9.44;100.00;99541.03;7397781;19;20022;-82
2023/01/03 12:26:29;;;;;;;0.05;0.03;;;;;;;9.50;100.00;99539.13;7396620;19;20033;-81
2023/01/03 12:29:03;;;;;;;0.43;0.15;;;;;;;9.55;100.00;99536.44;7394902;19;20025;-82
2023/01/03 12:31:36;;;;;;;0.90;0.57;;;;;;;9.60;100.00;99535.00;7393632;19;20014;-81
2023/01/03 12:34:08;;;;;;;1.45;0.40;;;;;;;9.61;100.00;99533.78;7397897;19;20088;-81
2023/01/03 12:36:48;;;;;;;1.42;0.40;;;;;;;9.58;100.00;99524.38;7392781;19;20493;-80
2023/01/03 12:39:37;;;;;;;0.88;0.20;;;;;;;9.61;100.00;99523.44;7391267;19;20025;-82
2023/01/03 12:42:30;;;;;;;0.10;0.00;;;;;;;9.61;100.00;99525.44;7393544;19;20546;-82
2023/01/03 12:45:17;;;;;;;1.38;0.45;;;;;;;9.62;100.00;99521.41;7393464;19;20015;-81
2023/01/03 12:48:03;;;;;;;0.20;0.13;;;;;;;9.62;100.00;99518.59;7392170;19;20022;-82
2023/01/03 12:50:31;;;;;;;0.30;0.30;;;;;;;9.61;100.00;99517.09;7393154;19;20018;-83
2023/01/03 12:53:05;;;;;;;0.10;0.10;;;;;;;9.57;100.00;99499.84;7394707;19;20817;-82